createdAt,value
2023-05-10T00:00:40.492Z,15.76
2023-05-10T00:03:07.054Z,15.80
2023-05-10T00:05:33.499Z,15.83
2023-05-10T00:07:59.887Z,15.80
2023-05-10T00:10:26.249Z,15.77
2023-05-10T00:12:52.676Z,15.70
2023-05-10T00:15:19.090Z,15.68
2023-05-10T00:17:45.558Z,15.65
2023-05-10T00:20:11.936Z,15.64
2023-05-10T00:22:38.298Z,15.66
2023-05-10T00:25:04.685Z,15.50
2023-05-10T00:27:31.072Z,15.54
2023-05-10T00:29:57.456Z,15.60
2023-05-10T00:32:23.898Z,15.66
2023-05-10T00:34:50.361Z,15.65
2023-05-10T00:37:16.740Z,15.69
2023-05-10T00:39:43.100Z,15.71
2023-05-10T00:42:09.469Z,15.61
2023-05-10T00:44:35.856Z,15.60
2023-05-10T00:47:02.207Z,15.55
2023-05-10T00:49:28.578Z,15.64
2023-05-10T00:51:54.920Z,15.68
2023-05-10T00:54:21.307Z,15.65
2023-05-10T00:56:47.695Z,15.68
2023-05-10T00:59:14.065Z,15.67
2023-05-10T01:01:40.468Z,15.70
2023-05-10T01:04:06.905Z,15.64
2023-05-10T01:06:33.251Z,15.63
2023-05-10T01:08:59.589Z,15.56
2023-05-10T01:11:25.914Z,15.49
2023-05-10T01:13:52.281Z,15.49
2023-05-10T01:16:18.690Z,15.45
2023-05-10T01:18:45.033Z,15.42
2023-05-10T01:21:11.410Z,15.36
2023-05-10T01:23:37.808Z,15.28
2023-05-10T01:26:04.215Z,15.27
2023-05-10T01:28:30.589Z,15.24
2023-05-10T01:30:57.000Z,15.23
2023-05-10T01:33:23.374Z,15.26
2023-05-10T01:35:49.752Z,15.22
2023-05-10T01:38:16.132Z,15.22
2023-05-10T01:40:42.537Z,15.15
2023-05-10T01:43:08.922Z,15.16
2023-05-10T01:45:35.280Z,15.19
2023-05-10T01:48:01.636Z,15.22
2023-05-10T01:50:28.021Z,15.23
2023-05-10T01:52:54.399Z,15.24
2023-05-10T01:55:20.803Z,15.27
2023-05-10T01:57:47.233Z,15.35
2023-05-10T02:00:13.684Z,15.34
2023-05-10T02:02:40.234Z,15.37
2023-05-10T02:05:06.602Z,15.36
2023-05-10T02:07:32.974Z,15.40
2023-05-10T02:10:00.483Z,15.40
2023-05-10T02:12:26.857Z,15.39
2023-05-10T02:14:53.204Z,15.37
2023-05-10T02:17:19.549Z,15.48
2023-05-10T02:19:45.927Z,15.55
2023-05-10T02:22:12.276Z,15.54
2023-05-10T02:24:38.656Z,15.53
2023-05-10T02:27:05.055Z,15.51
2023-05-10T02:29:31.394Z,15.49
2023-05-10T02:31:57.784Z,15.48
2023-05-10T02:34:24.149Z,15.44
2023-05-10T02:36:50.530Z,15.45
2023-05-10T02:39:16.877Z,15.43
2023-05-10T02:41:43.254Z,15.34
2023-05-10T02:44:09.594Z,15.35
2023-05-10T02:46:36.058Z,15.21
2023-05-10T02:49:02.461Z,15.24
2023-05-10T02:51:28.814Z,15.17
2023-05-10T02:53:55.202Z,15.12
2023-05-10T02:56:21.558Z,15.06
2023-05-10T02:58:47.930Z,15.02
2023-05-10T03:01:14.353Z,14.93
2023-05-10T03:03:40.705Z,14.97
2023-05-10T03:06:07.600Z,14.92
2023-05-10T03:08:33.998Z,14.92
2023-05-10T03:11:00.388Z,14.90
2023-05-10T03:13:26.901Z,14.91
2023-05-10T03:15:53.319Z,14.90
2023-05-10T03:18:19.707Z,14.91
2023-05-10T03:20:46.055Z,14.89
2023-05-10T03:23:12.466Z,14.92
2023-05-10T03:25:38.830Z,14.96
2023-05-10T03:28:05.301Z,14.97
2023-05-10T03:30:31.674Z,14.96
2023-05-10T03:32:58.116Z,14.97
2023-05-10T03:35:24.533Z,15.03
2023-05-10T03:37:50.913Z,15.00
2023-05-10T03:40:17.560Z,15.01
2023-05-10T03:42:44.098Z,15.02
2023-05-10T03:45:10.484Z,14.97
2023-05-10T03:47:36.853Z,14.92
2023-05-10T03:50:03.249Z,14.92
2023-05-10T03:52:29.638Z,14.83
2023-05-10T03:54:55.980Z,14.80
2023-05-10T03:57:22.321Z,14.83
2023-05-10T03:59:48.663Z,14.77
2023-05-10T04:02:15.040Z,14.72
2023-05-10T04:04:41.389Z,14.70
2023-05-10T04:07:07.739Z,14.70
2023-05-10T04:09:34.069Z,14.73
2023-05-10T04:12:00.412Z,14.74
2023-05-10T04:14:26.815Z,14.75
2023-05-10T04:16:53.226Z,14.81
2023-05-10T04:19:19.664Z,14.78
2023-05-10T04:21:46.049Z,14.76
2023-05-10T04:24:13.431Z,14.61
2023-05-10T04:26:39.955Z,14.61
2023-05-10T04:29:06.341Z,14.62
2023-05-10T04:31:32.699Z,14.61
2023-05-10T04:33:59.081Z,14.66
2023-05-10T04:36:25.506Z,14.65
2023-05-10T04:38:51.886Z,14.67
2023-05-10T04:41:18.273Z,14.69
2023-05-10T04:43:44.620Z,14.70
2023-05-10T04:46:11.036Z,14.70
2023-05-10T04:48:37.478Z,14.70
2023-05-10T04:51:03.822Z,14.67
2023-05-10T04:53:30.215Z,14.72
2023-05-10T04:55:56.637Z,14.76
2023-05-10T04:58:23.038Z,14.75
2023-05-10T05:00:49.417Z,14.73
2023-05-10T05:03:15.858Z,14.76
2023-05-10T05:05:42.316Z,14.82
2023-05-10T05:08:08.705Z,14.84
2023-05-10T05:10:35.111Z,14.81
2023-05-10T05:13:01.505Z,14.79
2023-05-10T05:15:27.871Z,14.83
2023-05-10T05:17:54.264Z,14.87
2023-05-10T05:20:20.672Z,15.03
2023-05-10T05:22:47.009Z,15.03
2023-05-10T05:25:13.353Z,15.07
2023-05-10T05:27:39.698Z,15.12
2023-05-10T05:30:06.117Z,15.20
2023-05-10T05:32:32.508Z,15.24
2023-05-10T05:34:59.102Z,15.19
2023-05-10T05:37:25.545Z,15.23
2023-05-10T05:39:51.932Z,15.25
2023-05-10T05:42:18.275Z,15.29
2023-05-10T05:44:44.658Z,15.31
2023-05-10T05:47:11.001Z,15.37
2023-05-10T05:49:37.328Z,15.34
2023-05-10T05:52:03.669Z,15.34
2023-05-10T05:54:30.044Z,15.21
2023-05-10T05:56:56.386Z,15.19
2023-05-10T05:59:22.762Z,15.12
2023-05-10T06:01:49.164Z,15.09
2023-05-10T06:04:15.550Z,15.13
2023-05-10T06:06:41.901Z,15.21
2023-05-10T06:09:08.307Z,15.27
2023-05-10T06:11:35.062Z,15.35
2023-05-10T06:14:01.444Z,15.34
2023-05-10T06:16:27.875Z,15.33
2023-05-10T06:18:54.286Z,15.31
2023-05-10T06:21:20.678Z,15.31
2023-05-10T06:23:47.024Z,15.30
2023-05-10T06:26:13.429Z,15.39
2023-05-10T06:28:39.767Z,15.37
2023-05-10T06:31:06.168Z,15.43
2023-05-10T06:33:32.522Z,15.40
2023-05-10T06:35:58.895Z,15.37
2023-05-10T06:38:25.247Z,15.32
2023-05-10T06:40:51.578Z,15.45
2023-05-10T06:43:17.952Z,15.56
2023-05-10T06:45:44.348Z,15.54
2023-05-10T06:48:10.719Z,15.56
2023-05-10T06:50:37.131Z,15.61
2023-05-10T06:53:03.543Z,15.64
2023-05-10T06:55:29.931Z,15.71
2023-05-10T06:57:56.330Z,15.81
2023-05-10T07:00:22.786Z,15.92
2023-05-10T07:02:49.189Z,15.94
2023-05-10T07:05:15.795Z,16.01
2023-05-10T07:07:42.256Z,15.99
2023-05-10T07:10:08.598Z,16.07
2023-05-10T07:12:35.063Z,16.02
2023-05-10T07:15:01.483Z,16.11
2023-05-10T07:17:27.928Z,16.26
2023-05-10T07:19:54.339Z,16.18
2023-05-10T07:22:20.709Z,16.21
2023-05-10T07:24:47.123Z,16.35
2023-05-10T07:27:13.476Z,16.56
2023-05-10T07:29:39.878Z,16.71
2023-05-10T07:32:06.280Z,16.71
2023-05-10T07:34:32.652Z,16.84
2023-05-10T07:36:59.030Z,16.97
2023-05-10T07:39:27.807Z,16.91
2023-05-10T07:41:54.492Z,16.78
2023-05-10T07:44:20.881Z,16.78
2023-05-10T07:46:47.255Z,16.75
2023-05-10T07:49:13.624Z,16.46
2023-05-10T07:51:39.954Z,16.47
2023-05-10T07:54:06.333Z,16.50
2023-05-10T07:56:32.715Z,16.58
2023-05-10T07:58:59.113Z,16.71
2023-05-10T08:01:25.572Z,16.84
2023-05-10T08:03:52.045Z,16.91
2023-05-10T08:06:18.517Z,16.93
2023-05-10T08:08:44.850Z,16.63
2023-05-10T08:11:11.226Z,16.64
2023-05-10T08:13:37.722Z,16.62
2023-05-10T08:16:04.273Z,16.68
2023-05-10T08:18:30.785Z,16.56
2023-05-10T08:20:57.232Z,16.49
2023-05-10T08:23:23.721Z,16.48
2023-05-10T08:25:50.056Z,16.48
2023-05-10T08:28:16.464Z,16.34
2023-05-10T08:30:42.858Z,16.51
2023-05-10T08:33:09.250Z,16.58
2023-05-10T08:35:35.642Z,16.77
2023-05-10T08:38:01.985Z,16.67
2023-05-10T08:40:28.316Z,16.95
2023-05-10T08:42:54.636Z,17.06
2023-05-10T08:45:21.021Z,16.98
2023-05-10T08:47:47.455Z,17.12
2023-05-10T08:50:13.887Z,17.14
2023-05-10T08:52:40.282Z,17.07
2023-05-10T08:55:06.646Z,16.94
2023-05-10T08:57:33.026Z,16.84
2023-05-10T08:59:59.367Z,16.97
2023-05-10T09:02:25.763Z,17.06
2023-05-10T09:04:52.212Z,17.23
2023-05-10T09:07:18.669Z,17.36
2023-05-10T09:09:45.041Z,17.41
2023-05-10T09:12:11.429Z,17.39
2023-05-10T09:14:37.840Z,17.36
2023-05-10T09:17:04.230Z,17.47
2023-05-10T09:19:30.597Z,17.53
2023-05-10T09:21:56.946Z,17.69
2023-05-10T09:24:23.284Z,17.66
2023-05-10T09:26:49.708Z,17.74
2023-05-10T09:29:17.531Z,17.78
2023-05-10T09:31:44.304Z,18.06
2023-05-10T09:34:10.643Z,18.15
2023-05-10T09:36:37.023Z,18.21
2023-05-10T09:39:03.424Z,18.23
2023-05-10T09:41:29.805Z,18.26
2023-05-10T09:43:56.154Z,18.21
2023-05-10T09:46:22.586Z,18.28
2023-05-10T09:48:49.057Z,18.30
2023-05-10T09:51:15.433Z,18.08
2023-05-10T09:53:41.775Z,18.06
2023-05-10T09:56:08.122Z,18.05
2023-05-10T09:58:34.485Z,18.07
2023-05-10T10:01:00.869Z,18.02
2023-05-10T10:03:29.670Z,17.94
2023-05-10T10:05:56.680Z,17.87
2023-05-10T10:08:23.068Z,17.67
2023-05-10T10:10:51.535Z,17.57
2023-05-10T10:13:17.879Z,17.56
2023-05-10T10:15:44.316Z,17.56
2023-05-10T10:18:10.786Z,17.52
2023-05-10T10:20:37.333Z,17.46
2023-05-10T10:23:03.750Z,17.58
2023-05-10T10:25:30.092Z,17.53
2023-05-10T10:27:56.476Z,17.52
2023-05-10T10:30:22.866Z,17.59
2023-05-10T10:32:49.277Z,17.68
2023-05-10T10:35:15.820Z,17.66
2023-05-10T10:37:42.329Z,17.70
2023-05-10T10:40:08.715Z,17.97
2023-05-10T10:42:35.056Z,18.15
2023-05-10T10:45:01.421Z,18.48
2023-05-10T10:47:27.799Z,18.43
2023-05-10T10:49:54.158Z,18.47
2023-05-10T10:52:20.552Z,18.57
2023-05-10T10:54:46.920Z,18.42
2023-05-10T10:57:13.239Z,18.26
2023-05-10T10:59:39.615Z,18.32
2023-05-10T11:02:05.960Z,18.22
2023-05-10T11:04:32.357Z,18.23
2023-05-10T11:06:58.766Z,18.36
2023-05-10T11:09:25.133Z,18.36
2023-05-10T11:11:51.509Z,18.40
2023-05-10T11:14:17.882Z,18.52
2023-05-10T11:16:44.301Z,18.45
2023-05-10T11:19:10.718Z,18.22
2023-05-10T11:21:37.087Z,18.35
2023-05-10T11:24:03.416Z,18.22
2023-05-10T11:26:29.747Z,18.24
2023-05-10T11:28:56.123Z,18.34
2023-05-10T11:31:22.577Z,18.42
2023-05-10T11:33:49.076Z,18.57
2023-05-10T11:36:15.461Z,18.67
2023-05-10T11:38:41.850Z,18.61
2023-05-10T11:41:08.205Z,18.59
2023-05-10T11:43:34.531Z,18.58
2023-05-10T11:46:00.908Z,18.66
2023-05-10T11:48:27.284Z,18.74
2023-05-10T11:50:53.616Z,18.85
2023-05-10T11:53:20.164Z,18.68
2023-05-10T11:55:46.555Z,18.56
2023-05-10T11:58:12.901Z,18.84
2023-05-10T12:00:39.227Z,18.79
2023-05-10T12:03:05.658Z,18.74
2023-05-10T12:05:32.149Z,18.65
2023-05-10T12:07:58.525Z,18.90
2023-05-10T12:10:24.904Z,18.78
2023-05-10T12:12:51.255Z,19.01
2023-05-10T12:15:17.585Z,19.00
2023-05-10T12:17:43.995Z,18.97
2023-05-10T12:20:10.398Z,19.18
2023-05-10T12:22:36.751Z,19.36
2023-05-10T12:25:03.122Z,19.56
2023-05-10T12:27:29.408Z,19.74
2023-05-10T12:29:55.725Z,19.62
2023-05-10T12:32:22.039Z,19.62
2023-05-10T12:34:48.335Z,19.52
2023-05-10T12:37:14.625Z,19.34
2023-05-10T12:39:40.909Z,19.34
2023-05-10T12:42:07.203Z,19.37
2023-05-10T12:44:33.489Z,19.54
2023-05-10T12:46:59.770Z,19.59
2023-05-10T12:49:26.048Z,19.86
2023-05-10T12:51:52.343Z,19.91
2023-05-10T12:54:18.639Z,19.96
2023-05-10T12:56:44.929Z,19.97
2023-05-10T12:59:11.230Z,19.96
2023-05-10T13:01:37.632Z,19.88
2023-05-10T13:04:04.105Z,19.94
2023-05-10T13:06:30.532Z,20.09
2023-05-10T13:08:56.829Z,19.98
2023-05-10T13:11:23.124Z,20.23
2023-05-10T13:13:49.411Z,19.99
2023-05-10T13:16:15.718Z,20.11
2023-05-10T13:18:42.096Z,19.81
2023-05-10T13:21:08.431Z,19.72
2023-05-10T13:23:34.715Z,19.64
2023-05-10T13:26:00.995Z,19.85
2023-05-10T13:28:27.361Z,19.75
2023-05-10T13:30:53.664Z,19.95
2023-05-10T13:33:19.949Z,20.15
2023-05-10T13:35:46.269Z,19.83
2023-05-10T13:38:12.560Z,19.90
2023-05-10T13:40:38.848Z,19.87
2023-05-10T13:43:05.195Z,20.06
2023-05-10T13:45:31.482Z,19.98
2023-05-10T13:47:57.782Z,19.90
2023-05-10T13:50:24.099Z,19.83
2023-05-10T13:52:50.391Z,19.57
2023-05-10T13:55:16.915Z,19.51
2023-05-10T13:57:43.436Z,19.66
2023-05-10T14:00:09.725Z,19.77
2023-05-10T14:02:36.136Z,19.90
2023-05-10T14:05:02.569Z,19.87
2023-05-10T14:07:28.858Z,19.86
2023-05-10T14:09:55.145Z,19.59
2023-05-10T14:12:21.453Z,19.60
2023-05-10T14:14:47.771Z,19.53
2023-05-10T14:17:14.047Z,19.62
2023-05-10T14:19:40.358Z,19.70
2023-05-10T14:22:06.703Z,19.61
2023-05-10T14:24:32.980Z,19.43
2023-05-10T14:26:59.260Z,19.34
2023-05-10T14:29:25.556Z,19.31
2023-05-10T14:31:51.888Z,19.18
2023-05-10T14:34:18.294Z,19.20
2023-05-10T14:36:44.583Z,19.29
2023-05-10T14:39:10.890Z,19.16
2023-05-10T14:41:37.176Z,19.21
2023-05-10T14:44:03.465Z,19.15
2023-05-10T14:46:29.807Z,19.13
2023-05-10T14:48:56.229Z,19.15
2023-05-10T14:51:22.519Z,19.69
2023-05-10T14:53:48.808Z,20.23
2023-05-10T14:56:15.097Z,20.64
2023-05-10T14:58:41.373Z,20.59
2023-05-10T15:01:07.691Z,20.26
2023-05-10T15:03:34.561Z,20.14
2023-05-10T15:06:01.345Z,20.01
2023-05-10T15:08:27.646Z,20.40
2023-05-10T15:10:53.920Z,20.69
2023-05-10T15:13:20.220Z,20.64
2023-05-10T15:15:46.531Z,20.59
2023-05-10T15:18:12.884Z,20.64
2023-05-10T15:20:39.175Z,20.35
2023-05-10T15:23:05.462Z,20.20
2023-05-10T15:25:31.750Z,19.84
2023-05-10T15:27:58.033Z,19.87
2023-05-10T15:30:24.299Z,19.66
2023-05-10T15:32:50.611Z,19.73
2023-05-10T15:35:17.109Z,19.46
2023-05-10T15:37:43.515Z,19.14
2023-05-10T15:40:09.800Z,19.02
2023-05-10T15:42:36.110Z,19.05
2023-05-10T15:45:02.400Z,18.88
2023-05-10T15:47:28.823Z,18.90
2023-05-10T15:49:55.188Z,18.92
2023-05-10T15:52:21.570Z,18.93
2023-05-10T15:54:47.918Z,18.72
2023-05-10T15:57:14.310Z,18.52
2023-05-10T15:59:40.656Z,18.60
2023-05-10T16:02:07.047Z,18.59
2023-05-10T16:04:33.390Z,18.46
2023-05-10T16:06:59.719Z,18.44
2023-05-10T16:09:26.085Z,18.51
2023-05-10T16:11:52.471Z,18.60
2023-05-10T16:14:18.863Z,18.48
2023-05-10T16:16:45.343Z,18.49
2023-05-10T16:19:11.791Z,18.30
2023-05-10T16:21:38.182Z,18.39
2023-05-10T16:24:04.573Z,18.38
2023-05-10T16:26:30.967Z,18.36
2023-05-10T16:28:57.337Z,18.39
2023-05-10T16:31:23.700Z,18.59
2023-05-10T16:33:50.037Z,18.68
2023-05-10T16:36:16.418Z,18.75
2023-05-10T16:38:42.826Z,18.80
2023-05-10T16:41:09.222Z,18.85
2023-05-10T16:43:35.560Z,18.80
2023-05-10T16:46:01.953Z,18.79
2023-05-10T16:48:28.310Z,18.94
2023-05-10T16:50:54.689Z,19.01
2023-05-10T16:53:21.077Z,19.04
2023-05-10T16:55:47.457Z,19.05
2023-05-10T16:58:13.827Z,19.06
2023-05-10T17:00:40.159Z,18.90
2023-05-10T17:03:06.603Z,18.79
2023-05-10T17:05:33.040Z,18.81
2023-05-10T17:07:59.404Z,18.80
2023-05-10T17:10:25.815Z,18.92
2023-05-10T17:12:52.189Z,19.07
2023-05-10T17:15:18.760Z,19.10
2023-05-10T17:17:45.548Z,19.22
2023-05-10T17:20:11.938Z,19.19
2023-05-10T17:22:38.279Z,19.19
2023-05-10T17:25:04.668Z,19.13
2023-05-10T17:27:31.059Z,18.93
2023-05-10T17:29:57.482Z,18.87
2023-05-10T17:32:23.878Z,18.84
2023-05-10T17:34:50.295Z,18.83
2023-05-10T17:37:16.663Z,18.75
2023-05-10T17:39:42.985Z,18.63
2023-05-10T17:42:09.380Z,18.68
2023-05-10T17:44:35.770Z,18.45
2023-05-10T17:47:02.176Z,18.34
2023-05-10T17:49:28.512Z,18.25
2023-05-10T17:51:54.838Z,18.12
2023-05-10T17:54:21.168Z,18.12
2023-05-10T17:56:47.516Z,18.03
2023-05-10T17:59:13.911Z,17.90
2023-05-10T18:01:40.381Z,17.85
2023-05-10T18:04:06.836Z,17.86
2023-05-10T18:06:33.190Z,17.95
2023-05-10T18:08:59.604Z,17.76
2023-05-10T18:11:25.951Z,17.75
2023-05-10T18:13:52.280Z,17.73
2023-05-10T18:16:18.686Z,17.53
2023-05-10T18:18:45.283Z,17.37
2023-05-10T18:21:11.748Z,17.21
2023-05-10T18:23:38.109Z,17.15
2023-05-10T18:26:04.488Z,16.91
2023-05-10T18:28:30.944Z,16.78
2023-05-10T18:30:57.566Z,16.64
2023-05-10T18:33:24.113Z,16.59
2023-05-10T18:35:50.509Z,16.52
2023-05-10T18:38:16.888Z,16.51
2023-05-10T18:40:43.273Z,16.46
2023-05-10T18:43:09.671Z,16.49
2023-05-10T18:45:36.193Z,16.44
2023-05-10T18:48:02.625Z,16.29
2023-05-10T18:50:29.078Z,16.22
2023-05-10T18:52:56.213Z,16.23
2023-05-10T18:55:22.952Z,16.24
2023-05-10T18:57:50.021Z,16.24
2023-05-10T19:00:17.051Z,16.22
2023-05-10T19:02:43.630Z,16.24
2023-05-10T19:05:10.337Z,16.19
2023-05-10T19:07:37.135Z,16.16
2023-05-10T19:10:03.836Z,16.19
2023-05-10T19:12:30.303Z,16.21
2023-05-10T19:14:56.725Z,16.19
2023-05-10T19:17:23.110Z,16.04
2023-05-10T19:19:49.772Z,15.99
2023-05-10T19:22:16.225Z,16.01
2023-05-10T19:24:42.861Z,15.93
2023-05-10T19:27:09.285Z,15.94
2023-05-10T19:29:35.731Z,15.88
2023-05-10T19:32:02.158Z,15.66
2023-05-10T19:34:29.879Z,15.52
2023-05-10T19:36:56.262Z,15.37
2023-05-10T19:39:22.686Z,15.34
2023-05-10T19:41:50.167Z,15.27
2023-05-10T19:44:16.624Z,15.10
2023-05-10T19:46:43.257Z,15.06
2023-05-10T19:49:09.876Z,14.95
2023-05-10T19:51:36.248Z,14.95
2023-05-10T19:54:02.626Z,14.92
2023-05-10T19:56:29.209Z,14.81
2023-05-10T19:58:55.697Z,14.76
2023-05-10T20:01:22.083Z,14.72
2023-05-10T20:03:48.531Z,14.74
2023-05-10T20:06:14.926Z,14.84
2023-05-10T20:08:41.321Z,14.92
2023-05-10T20:11:07.704Z,15.08
2023-05-10T20:13:34.082Z,15.18
2023-05-10T20:16:00.435Z,15.26
2023-05-10T20:18:26.871Z,15.26
2023-05-10T20:20:53.292Z,15.24
2023-05-10T20:23:19.707Z,15.13
2023-05-10T20:25:46.073Z,15.13
2023-05-10T20:28:12.475Z,15.16
2023-05-10T20:30:38.858Z,15.23
2023-05-10T20:33:05.263Z,15.25
2023-05-10T20:35:31.598Z,15.36
2023-05-10T20:37:57.990Z,15.57
2023-05-10T20:40:24.345Z,15.75
2023-05-10T20:42:50.711Z,15.83
2023-05-10T20:45:17.091Z,15.84
2023-05-10T20:47:43.429Z,15.72
2023-05-10T20:50:09.844Z,15.60
2023-05-10T20:52:36.184Z,15.59
2023-05-10T20:55:02.521Z,15.54
2023-05-10T20:57:28.896Z,15.55
2023-05-10T20:59:55.235Z,15.58
2023-05-10T21:02:21.582Z,15.59
2023-05-10T21:04:47.997Z,15.62
2023-05-10T21:07:14.396Z,15.66
2023-05-10T21:09:40.757Z,15.63
2023-05-10T21:12:07.125Z,15.57
2023-05-10T21:14:33.447Z,15.48
2023-05-10T21:16:59.775Z,15.42
2023-05-10T21:19:26.101Z,15.43
2023-05-10T21:21:52.476Z,15.40
2023-05-10T21:24:18.855Z,15.30
2023-05-10T21:26:45.447Z,15.22
2023-05-10T21:29:11.855Z,15.23
2023-05-10T21:31:38.289Z,15.24
2023-05-10T21:34:04.682Z,15.20
2023-05-10T21:36:31.056Z,15.34
2023-05-10T21:38:57.437Z,15.32
2023-05-10T21:41:23.833Z,15.27
2023-05-10T21:43:50.180Z,15.23
2023-05-10T21:46:16.577Z,15.26
2023-05-10T21:48:42.975Z,15.28
2023-05-10T21:51:09.361Z,15.45
2023-05-10T21:53:35.757Z,15.54
2023-05-10T21:56:02.137Z,15.52
2023-05-10T21:58:28.506Z,15.54
2023-05-10T22:00:54.863Z,15.54
2023-05-10T22:03:21.433Z,15.43
2023-05-10T22:05:47.989Z,15.43
2023-05-10T22:08:14.390Z,15.52
2023-05-10T22:10:40.726Z,15.53
2023-05-10T22:13:07.062Z,15.55
2023-05-10T22:15:35.575Z,15.47
2023-05-10T22:18:02.819Z,15.19
2023-05-10T22:20:29.251Z,15.07
2023-05-10T22:22:55.647Z,15.06
2023-05-10T22:25:22.000Z,15.08
2023-05-10T22:27:48.347Z,14.95
2023-05-10T22:30:14.830Z,14.88
2023-05-10T22:32:41.318Z,14.82
2023-05-10T22:35:07.718Z,14.81
2023-05-10T22:37:34.087Z,14.81
2023-05-10T22:40:00.450Z,14.95
2023-05-10T22:42:26.792Z,14.98
2023-05-10T22:44:53.168Z,15.02
2023-05-10T22:47:19.515Z,15.03
2023-05-10T22:49:45.862Z,15.03
2023-05-10T22:52:12.232Z,15.18
2023-05-10T22:54:38.571Z,15.37
2023-05-10T22:57:04.928Z,15.18
2023-05-10T22:59:31.272Z,15.03
2023-05-10T23:01:57.669Z,15.02
2023-05-10T23:04:24.120Z,15.08
2023-05-10T23:06:50.496Z,15.17
2023-05-10T23:09:16.821Z,15.18
2023-05-10T23:11:43.205Z,15.06
2023-05-10T23:14:09.592Z,14.93
2023-05-10T23:16:36.078Z,14.85
2023-05-10T23:19:02.578Z,14.80
2023-05-10T23:21:31.280Z,14.80
2023-05-10T23:23:58.476Z,14.95
2023-05-10T23:26:24.832Z,15.14
2023-05-10T23:28:51.164Z,15.12
2023-05-10T23:31:17.543Z,14.95
2023-05-10T23:33:43.926Z,14.90
2023-05-10T23:36:10.276Z,14.91
2023-05-10T23:38:36.654Z,14.93
2023-05-10T23:41:03.045Z,14.98
2023-05-10T23:43:29.422Z,14.86
2023-05-10T23:45:55.802Z,14.74
2023-05-10T23:48:22.223Z,14.71
2023-05-10T23:50:48.613Z,14.68
2023-05-10T23:53:14.947Z,14.72
2023-05-10T23:55:41.285Z,14.77
2023-05-10T23:58:07.637Z,14.61
